Time;durP1;ratioP1;P1;durP2;ratioP2;P2;SDS_P1;SDS_P2;PMS_P1;PMS_P2;Temp;Humidity;BMP_temperature;BMP_pressure;BME280_temperature;BME280_humidity;BME280_pressure;Samples;Min_cycle;Max_cycle;Signal;HPM_P1;HPM_P2
2022/10/06 00:00:36;;;;;;;;;1.00;1.00;;;;;16.60;60.42;102319.78;5035655;28;45522;-48
2022/10/06 00:03:02;;;;;;;;;1.75;1.00;;;;;16.57;60.70;102328.16;5035755;28;45311;-47
2022/10/06 00:05:27;;;;;;;;;2.50;0.50;;;;;16.50;60.87;102322.53;5035555;28;45334;-47
2022/10/06 00:07:54;;;;;;;;;5.00;1.00;;;;;16.52;61.04;102331.28;5035585;28;45703;-46
2022/10/06 00:10:20;;;;;;;;;3.75;1.00;;;;;16.50;60.96;102338.63;5035549;28;45336;-48
2022/10/06 00:12:49;;;;;;;;;1.00;0.00;;;;;16.42;60.76;102335.84;5035825;28;45439;-48
2022/10/06 00:15:22;;;;;;;;;2.50;1.00;;;;;16.41;61.16;102353.78;5035347;28;46707;-45
2022/10/06 00:17:47;;;;;;;;;2.50;0.00;;;;;16.36;61.10;102348.03;5035250;28;45308;-44
2022/10/06 00:20:13;;;;;;;;;2.00;0.50;;;;;16.35;60.85;102357.06;5035388;28;45477;-47
2022/10/06 00:22:43;;;;;;;;;2.25;0.50;;;;;16.33;61.12;102360.88;5036883;28;45438;-46
2022/10/06 00:25:11;;;;;;;;;2.00;1.00;;;;;16.29;61.20;102367.53;5038777;28;46095;-48
2022/10/06 00:27:39;;;;;;;;;1.00;1.00;;;;;16.26;60.80;102368.66;5020869;28;45411;-46
2022/10/06 00:30:08;;;;;;;;;1.75;0.00;;;;;16.22;61.19;102383.38;5038824;28;45476;-47
2022/10/06 00:32:34;;;;;;;;;1.00;0.25;;;;;16.19;61.30;102381.84;5038857;28;45499;-46
2022/10/06 00:35:00;;;;;;;;;1.00;0.00;;;;;16.12;61.17;102377.19;5038882;28;45471;-48
2022/10/06 00:37:27;;;;;;;;;1.00;1.00;;;;;16.14;61.70;102391.31;5038989;28;45391;-46
2022/10/06 00:39:52;;;;;;;;;1.50;1.25;;;;;16.11;61.72;102403.19;5038930;28;45437;-47
2022/10/06 00:42:27;;;;;;;;;0.25;0.25;;;;;16.07;61.37;102406.28;5021034;28;45398;-50
2022/10/06 00:44:53;;;;;;;;;4.00;1.00;;;;;16.03;61.62;102403.03;5038512;28;46177;-48
2022/10/06 00:47:23;;;;;;;;;2.00;0.00;;;;;15.99;61.55;102406.16;5038610;28;45376;-45
2022/10/06 00:49:49;;;;;;;;;1.00;1.00;;;;;15.94;61.67;102402.06;5038351;28;45379;-46
2022/10/06 00:52:20;;;;;;;;;3.00;0.50;;;;;15.91;61.56;102402.31;5039064;28;45528;-46
2022/10/06 00:54:45;;;;;;;;;2.00;1.00;;;;;15.88;61.91;102399.91;5038356;28;45449;-46
2022/10/06 00:57:11;;;;;;;;;4.00;0.00;;;;;15.83;61.90;102399.50;5038427;28;45349;-46
2022/10/06 00:59:38;;;;;;;;;3.00;0.00;;;;;15.83;61.99;102396.81;5038698;28;45336;-46
2022/10/06 01:02:12;;;;;;;;;6.75;1.25;;;;;15.83;62.04;102401.34;5038597;28;45469;-49
2022/10/06 01:04:43;;;;;;;;;2.50;0.00;;;;;15.81;61.56;102401.50;5038030;28;46373;-48
2022/10/06 01:07:09;;;;;;;;;2.75;0.50;;;;;15.81;62.07;102419.44;5038150;28;45324;-48
2022/10/06 01:09:35;;;;;;;;;4.00;1.75;;;;;15.76;61.81;102408.25;5038257;28;45475;-47
2022/10/06 01:12:04;;;;;;;;;5.25;2.25;;;;;15.77;61.10;102418.84;5038661;28;45466;-49
2022/10/06 01:14:30;;;;;;;;;0.00;0.00;;;;;15.75;61.85;102423.50;5038236;28;45823;-47
2022/10/06 01:17:02;;;;;;;;;3.50;1.00;;;;;15.74;61.68;102416.44;5038131;28;45284;-49
2022/10/06 01:19:30;;;;;;;;;0.25;0.00;;;;;15.72;61.83;102429.16;5038312;28;45449;-45
2022/10/06 01:21:59;;;;;;;;;2.50;1.00;;;;;15.68;61.73;102412.50;5038258;28;45365;-46
2022/10/06 01:24:24;;;;;;;;;1.25;1.00;;;;;15.63;61.82;102417.41;5036409;28;45501;-46
2022/10/06 01:26:51;;;;;;;;;2.00;0.00;;;;;15.74;61.77;102431.69;5037935;28;45328;-45
2022/10/06 01:29:17;;;;;;;;;1.25;1.00;;;;;15.73;61.52;102433.53;5037877;28;45411;-46
2022/10/06 01:31:43;;;;;;;;;3.00;1.00;;;;;15.71;61.56;102439.03;5037400;28;45247;-50
2022/10/06 01:34:08;;;;;;;;;4.75;1.00;;;;;15.73;61.49;102441.59;5037091;28;45525;-47
2022/10/06 01:36:34;;;;;;;;;3.75;1.00;;;;;15.75;61.43;102441.44;5037696;28;45525;-45
2022/10/06 01:38:59;;;;;;;;;3.00;0.25;;;;;15.70;61.63;102434.66;5037909;28;45268;-47
2022/10/06 01:41:26;;;;;;;;;1.75;0.00;;;;;15.74;61.15;102448.63;5038112;28;45440;-45
2022/10/06 01:43:51;;;;;;;;;2.50;0.00;;;;;15.74;61.37;102450.47;5037458;28;46242;-45
2022/10/06 01:46:17;;;;;;;;;1.75;1.75;;;;;15.73;61.64;102448.78;5037672;28;45391;-47
2022/10/06 01:48:42;;;;;;;;;3.00;1.00;;;;;15.71;61.90;102446.22;5019579;28;45405;-48
2022/10/06 01:51:12;;;;;;;;;3.75;0.75;;;;;15.68;61.38;102447.38;5037699;28;45529;-48
2022/10/06 01:53:37;;;;;;;;;2.50;1.00;;;;;15.65;61.63;102444.97;5019174;28;47084;-46
2022/10/06 01:56:03;;;;;;;;;0.00;0.00;;;;;15.59;61.61;102445.50;5037277;28;46105;-49
2022/10/06 01:58:28;;;;;;;;;0.25;0.00;;;;;15.57;61.60;102442.09;5037729;28;45711;-46
2022/10/06 02:00:54;;;;;;;;;1.75;0.50;;;;;15.55;61.31;102446.75;5037503;28;45446;-47
2022/10/06 02:03:19;;;;;;;;;3.50;2.00;;;;;15.52;61.54;102449.69;5037225;28;46203;-47
2022/10/06 02:05:44;;;;;;;;;1.00;1.00;;;;;15.48;61.31;102448.28;5037298;28;45362;-47
2022/10/06 02:08:10;;;;;;;;;1.00;0.75;;;;;15.46;61.57;102456.47;5037255;28;45269;-46
2022/10/06 02:10:35;;;;;;;;;0.25;0.25;;;;;15.44;61.68;102463.78;5037709;28;45482;-45
2022/10/06 02:13:01;;;;;;;;;2.67;1.67;;;;;15.41;61.62;102468.56;5037155;28;46002;-47
2022/10/06 02:15:27;;;;;;;;;4.33;0.33;;;;;15.39;61.72;102468.72;5037471;28;45363;-46
2022/10/06 02:17:53;;;;;;;;;4.25;1.50;;;;;15.35;61.59;102467.28;5037312;28;45416;-49
2022/10/06 02:20:19;;;;;;;;;3.75;0.75;;;;;15.35;61.60;102461.09;5037271;28;45336;-46
2022/10/06 02:22:44;;;;;;;;;1.75;1.00;;;;;15.32;61.56;102466.72;5036946;28;46959;-48
2022/10/06 02:25:13;;;;;;;;;3.00;1.33;;;;;15.21;61.57;102455.13;5036949;28;45395;-50
2022/10/06 02:27:39;;;;;;;;;5.00;1.67;;;;;15.30;61.52;102476.75;5037210;28;45343;-47
2022/10/06 02:30:06;;;;;;;;;1.00;1.00;;;;;15.29;61.46;102473.19;5002638;28;45532;-48
2022/10/06 02:32:38;;;;;;;;;6.67;1.33;;;;;15.28;61.10;102479.53;5036649;28;46164;-50
2022/10/06 02:35:05;;;;;;;;;2.00;0.33;;;;;15.15;61.23;102463.69;5036594;28;45210;-48
2022/10/06 02:37:31;;;;;;;;;3.67;1.00;;;;;15.26;61.07;102494.94;5036819;28;45243;-46
2022/10/06 02:39:56;;;;;;;;;3.00;1.00;;;;;15.25;60.91;102495.03;5037291;28;45364;-47
2022/10/06 02:42:22;;;;;;;;;1.00;1.00;;;;;15.23;60.75;102492.50;5036767;28;46197;-46
2022/10/06 02:44:50;;;;;;;;;1.67;1.00;;;;;15.23;60.77;102490.66;5036668;28;45475;-46
2022/10/06 02:47:15;;;;;;;;;4.00;1.00;;;;;15.21;60.61;102497.13;5035962;28;45357;-49
2022/10/06 02:49:41;;;;;;;;;2.67;1.00;;;;;15.19;60.79;102502.63;5036831;28;45761;-46
2022/10/06 02:52:07;;;;;;;;;1.25;0.75;;;;;15.15;60.48;102495.00;5036462;28;46033;-47
2022/10/06 02:54:34;;;;;;;;;2.00;1.00;;;;;15.16;60.63;102496.69;5036594;28;45303;-47
2022/10/06 02:56:59;;;;;;;;;2.00;0.00;;;;;15.15;60.64;102501.22;5036776;28;45408;-50
2022/10/06 02:59:26;;;;;;;;;2.00;1.33;;;;;15.12;60.74;102493.44;5036976;28;45172;-46
2022/10/06 03:01:51;;;;;;;;;2.33;1.00;;;;;15.12;60.93;102501.47;5036495;28;47225;-47
2022/10/06 03:04:16;;;;;;;;;0.67;0.67;;;;;15.12;60.44;102505.97;5036041;28;45510;-45
2022/10/06 03:06:42;;;;;;;;;2.67;1.00;;;;;15.10;60.37;102507.97;5036732;28;45408;-45
2022/10/06 03:09:09;;;;;;;;;3.33;2.00;;;;;15.08;60.45;102510.75;5036303;28;45507;-47
2022/10/06 03:11:37;;;;;;;;;5.00;2.00;;;;;15.07;60.64;102514.44;5036159;28;45738;-44
2022/10/06 03:14:03;;;;;;;;;5.00;1.00;;;;;15.04;60.60;102509.31;5036192;28;45433;-48
2022/10/06 03:16:34;;;;;;;;;1.00;1.00;;;;;15.03;60.56;102515.69;5036374;28;45273;-49
2022/10/06 03:19:00;;;;;;;;;4.67;1.33;;;;;15.01;60.44;102524.84;5036553;28;45243;-48
2022/10/06 03:21:31;;;;;;;;;1.00;1.00;;;;;14.96;60.65;102523.41;5036493;28;46239;-50
2022/10/06 03:23:57;;;;;;;;;3.00;1.00;;;;;14.93;60.54;102522.81;5036435;28;45468;-48
2022/10/06 03:26:29;;;;;;;;;3.00;2.67;;;;;14.92;60.65;102524.66;5036472;28;45397;-47
2022/10/06 03:28:55;;;;;;;;;3.33;1.00;;;;;14.90;60.53;102523.06;5035048;28;45557;-49
2022/10/06 03:31:20;;;;;;;;;4.67;3.33;;;;;14.88;60.87;102520.53;5035666;28;45491;-45
2022/10/06 03:33:46;;;;;;;;;5.33;1.00;;;;;14.81;61.07;102523.88;5036403;28;45424;-49
2022/10/06 03:36:17;;;;;;;;;4.33;2.67;;;;;14.82;61.01;102530.91;5035952;28;45417;-47
2022/10/06 03:38:43;;;;;;;;;4.00;1.33;;;;;14.80;61.11;102536.41;5036113;28;45303;-47
2022/10/06 03:41:11;;;;;;;;;6.00;3.00;;;;;14.77;60.98;102538.50;5035792;28;45355;-47
2022/10/06 03:43:37;;;;;;;;;1.67;1.00;;;;;14.76;61.07;102543.00;5035667;28;45282;-48
2022/10/06 03:46:04;;;;;;;;;3.67;1.33;;;;;14.72;61.17;102547.78;5036103;28;45379;-47
2022/10/06 03:48:32;;;;;;;;;5.33;1.33;;;;;14.70;61.10;102555.09;5036143;28;45414;-48
2022/10/06 03:51:13;;;;;;;;;2.00;0.00;;;;;14.66;61.21;102563.50;5035623;28;45490;-46
2022/10/06 03:53:39;;;;;;;;;1.33;1.00;;;;;14.65;61.29;102570.69;5035418;28;45512;-48
2022/10/06 03:56:07;;;;;;;;;2.67;1.00;;;;;14.64;61.09;102579.72;5035603;28;45368;-49
2022/10/06 03:58:34;;;;;;;;;4.67;1.00;;;;;14.60;61.20;102575.59;5040655;28;45587;-48
2022/10/06 04:01:02;;;;;;;;;6.00;1.00;;;;;14.61;60.95;102576.44;5042229;28;45426;-49
2022/10/06 04:03:28;;;;;;;;;5.00;1.00;;;;;14.58;61.33;102580.25;5042314;28;45458;-54
2022/10/06 04:05:59;;;;;;;;;3.33;2.67;;;;;14.58;61.13;102587.41;5042174;28;45543;-48
2022/10/06 04:08:24;;;;;;;;;6.33;1.00;;;;;14.56;61.15;102590.22;5042323;28;45461;-47
2022/10/06 04:10:50;;;;;;;;;3.33;2.00;;;;;14.55;61.08;102596.56;5041965;28;46125;-47
2022/10/06 04:13:17;;;;;;;;;4.33;1.33;;;;;14.55;61.16;102593.88;5041912;28;45444;-47
2022/10/06 04:15:42;;;;;;;;;2.67;2.00;;;;;14.48;61.25;102582.81;5042153;28;45466;-46
2022/10/06 04:18:08;;;;;;;;;1.00;0.67;;;;;14.53;61.33;102597.66;5042201;28;45432;-46
2022/10/06 04:20:33;;;;;;;;;2.67;0.00;;;;;14.51;61.54;102603.16;5041827;28;50685;-48
2022/10/06 04:22:58;;;;;;;;;2.67;1.33;;;;;14.46;61.52;102595.47;5042172;28;45385;-46
2022/10/06 04:25:24;;;;;;;;;3.67;1.00;;;;;14.49;61.67;102602.41;5041396;28;45409;-50
2022/10/06 04:27:49;;;;;;;;;1.00;1.00;;;;;14.47;61.62;102597.16;5042283;28;45348;-45
2022/10/06 04:30:14;;;;;;;;;2.33;1.00;;;;;14.47;61.54;102601.66;5041699;28;46096;-50
2022/10/06 04:32:40;;;;;;;;;5.00;1.00;;;;;14.46;61.76;102606.19;5041904;28;45341;-46
2022/10/06 04:35:05;;;;;;;;;2.00;0.33;;;;;14.44;61.78;102607.28;5041989;28;45370;-46
2022/10/06 04:37:31;;;;;;;;;1.00;1.00;;;;;14.44;61.71;102617.97;5041741;28;45387;-46
2022/10/06 04:39:56;;;;;;;;;5.00;1.00;;;;;14.40;61.57;102612.03;5041743;28;45967;-49
2022/10/06 04:42:21;;;;;;;;;2.00;2.00;;;;;14.41;61.86;102613.75;5041859;28;45205;-49
2022/10/06 04:44:47;;;;;;;;;4.67;2.33;;;;;14.40;61.93;102617.38;5042156;28;45681;-48
2022/10/06 04:47:12;;;;;;;;;1.33;1.00;;;;;14.39;61.86;102622.88;5042017;28;45387;-48
2022/10/06 04:49:37;;;;;;;;;5.00;1.00;;;;;14.37;62.09;102628.34;5041725;28;46083;-47
2022/10/06 04:52:03;;;;;;;;;1.00;1.00;;;;;14.35;62.03;102626.78;5041121;28;45398;-48
2022/10/06 04:54:28;;;;;;;;;1.00;1.00;;;;;14.33;62.06;102626.06;5041985;28;45387;-48
2022/10/06 04:56:53;;;;;;;;;3.33;1.00;;;;;14.34;62.40;102625.06;5024153;28;45516;-46
2022/10/06 04:59:19;;;;;;;;;7.33;3.33;;;;;14.32;62.41;102627.84;5041617;28;45313;-45
2022/10/06 05:01:44;;;;;;;;;2.33;0.67;;;;;14.31;62.19;102628.00;5041393;28;45450;-48
2022/10/06 05:04:09;;;;;;;;;2.67;1.00;;;;;14.28;62.62;102629.09;5041619;28;45217;-49
2022/10/06 05:06:37;;;;;;;;;5.00;1.67;;;;;14.29;62.43;102643.34;5041871;28;45452;-47
2022/10/06 05:09:06;;;;;;;;;1.33;1.00;;;;;14.27;62.02;102635.41;5039109;28;47049;-45
2022/10/06 05:11:32;;;;;;;;;3.00;1.00;;;;;14.27;62.51;102631.91;5038159;28;45398;-45
2022/10/06 05:13:58;;;;;;;;;4.00;2.00;;;;;14.26;62.71;102638.25;5037490;28;45791;-45
2022/10/06 05:16:26;;;;;;;;;3.33;1.00;;;;;14.23;62.59;102640.16;5038266;28;45499;-45
2022/10/06 05:18:52;;;;;;;;;5.00;2.67;;;;;14.23;62.72;102642.84;5037862;28;45361;-47
2022/10/06 05:21:22;;;;;;;;;6.00;3.67;;;;;14.19;62.66;102635.19;5037788;28;45436;-45
2022/10/06 05:23:48;;;;;;;;;1.00;1.00;;;;;14.21;62.75;102647.50;5038210;28;45391;-46
2022/10/06 05:26:16;;;;;;;;;2.33;1.00;;;;;14.21;63.26;102647.50;5038119;28;45338;-45
2022/10/06 05:28:42;;;;;;;;;6.67;3.00;;;;;14.17;63.05;102645.19;5037750;28;46196;-45
2022/10/06 05:31:14;;;;;;;;;2.00;2.00;;;;;14.07;62.69;102629.00;5037780;28;45387;-46
2022/10/06 05:33:40;;;;;;;;;7.33;1.00;;;;;14.13;63.00;102646.41;5037730;28;45273;-45
2022/10/06 05:36:09;;;;;;;;;2.00;1.00;;;;;14.16;62.79;102655.03;5038071;28;45326;-48
2022/10/06 05:38:35;;;;;;;;;2.00;2.00;;;;;14.16;63.01;102663.06;5037759;28;46149;-49
2022/10/06 05:41:06;;;;;;;;;4.67;3.00;;;;;14.12;63.18;102660.78;5037505;28;45332;-46
2022/10/06 05:43:33;;;;;;;;;4.67;3.00;;;;;14.13;63.18;102665.13;5037769;28;45499;-47
2022/10/06 05:46:01;;;;;;;;;3.00;3.00;;;;;14.13;63.07;102662.47;5037937;28;45345;-46
2022/10/06 05:48:27;;;;;;;;;2.00;2.00;;;;;14.11;63.46;102669.75;5037498;28;46452;-46
2022/10/06 05:51:08;;;;;;;;;3.67;2.67;;;;;14.10;63.48;102671.56;5037376;28;45408;-47
2022/10/06 05:53:35;;;;;;;;;3.67;2.33;;;;;14.09;63.57;102669.03;5037376;28;45496;-46
2022/10/06 05:56:03;;;;;;;;;8.33;2.00;;;;;14.11;63.54;102678.63;5037868;28;45261;-46
2022/10/06 05:58:29;;;;;;;;;3.00;2.00;;;;;14.09;63.65;102679.75;5037600;28;46031;-46
2022/10/06 06:00:54;;;;;;;;;7.00;2.00;;;;;14.09;63.24;102674.38;5037398;28;45440;-49
2022/10/06 06:03:19;;;;;;;;;10.00;4.00;;;;;14.10;63.41;102681.44;5037501;28;45409;-47
2022/10/06 06:05:45;;;;;;;;;4.33;1.67;;;;;14.10;63.55;102681.44;5037461;28;45505;-46
2022/10/06 06:08:10;;;;;;;;;4.00;2.00;;;;;14.10;63.27;102679.59;5037158;28;46009;-49
2022/10/06 06:10:36;;;;;;;;;6.00;4.00;;;;;14.10;63.70;102679.59;5037178;28;45862;-46
2022/10/06 06:13:02;;;;;;;;;8.33;3.00;;;;;14.09;62.99;102687.78;5037501;28;45320;-48
2022/10/06 06:18:28;;;;;;;;;9.33;3.00;;;;;14.11;63.20;102689.34;4956055;28;45813;-45
2022/10/06 06:21:05;;;;;;;;;1.00;1.00;;;;;14.10;63.19;102695.66;4955683;28;45408;-46
2022/10/06 06:23:39;;;;;;;;;5.67;3.00;;;;;14.12;63.31;102690.22;4970344;28;45366;-46
2022/10/06 06:26:10;;;;;;;;;6.33;2.00;;;;;14.07;63.03;102684.34;4975574;28;45455;-47
2022/10/06 06:28:36;;;;;;;;;9.00;3.67;;;;;14.16;63.08;102699.69;4975290;28;46095;-46
2022/10/06 06:31:08;;;;;;;;;5.00;2.00;;;;;14.18;63.05;102703.94;4975489;28;45517;-48
2022/10/06 06:33:36;;;;;;;;;2.00;0.33;;;;;14.20;62.83;102703.84;4975365;28;45383;-46
2022/10/06 06:36:23;;;;;;;;;3.67;2.00;;;;;14.19;62.75;102700.28;4975501;28;45390;-50
2022/10/06 06:38:51;;;;;;;;;3.00;2.00;;;;;14.21;62.55;102706.38;4974810;28;47277;-49
2022/10/06 06:41:23;;;;;;;;;3.33;1.67;;;;;14.25;62.53;102712.34;4975252;28;45399;-46
2022/10/06 06:43:49;;;;;;;;;3.00;3.00;;;;;14.29;62.30;102712.94;4967697;28;45539;-47
2022/10/06 06:46:17;;;;;;;;;7.33;2.00;;;;;14.33;62.36;102717.09;4969801;28;45476;-45
2022/10/06 06:48:44;;;;;;;;;3.67;3.00;;;;;14.36;62.39;102719.50;4972218;28;46186;-49
2022/10/06 06:51:10;;;;;;;;;3.33;1.00;;;;;14.38;62.26;102721.09;4970666;28;45605;-47
2022/10/06 06:53:37;;;;;;;;;4.33;3.33;;;;;14.40;62.35;102721.81;5029679;28;45531;-46
2022/10/06 06:56:03;;;;;;;;;5.67;2.33;;;;;14.46;62.02;102728.50;5024879;28;45498;-45
2022/10/06 06:58:29;;;;;;;;;8.33;2.00;;;;;14.48;61.84;102730.09;5027476;28;46272;-47
2022/10/06 07:01:03;;;;;;;;;2.00;2.00;;;;;14.54;61.70;102735.94;5033757;28;45778;-47
2022/10/06 07:03:29;;;;;;;;;8.33;2.33;;;;;14.56;61.64;102740.19;5033985;28;45488;-48
2022/10/06 07:06:07;;;;;;;;;4.00;2.33;;;;;14.62;61.39;102747.75;5034064;28;45434;-46
2022/10/06 07:08:33;;;;;;;;;7.00;2.00;;;;;14.66;61.18;102751.00;5016554;28;47165;-45
2022/10/06 07:10:58;;;;;;;;;2.33;2.33;;;;;14.70;61.29;102756.00;5029375;28;45511;-44
2022/10/06 07:13:23;;;;;;;;;10.00;3.00;;;;;14.71;61.14;102746.16;5033692;28;45875;-45
2022/10/06 07:26:44;;;;;;;;;3.33;1.00;;;;;14.87;60.55;102757.28;5033472;28;45602;-47
2022/10/06 07:29:09;;;;;;;;;2.67;1.67;;;;;14.98;60.84;102768.00;5033418;28;45764;-45
2022/10/06 07:31:35;;;;;;;;;4.67;2.67;;;;;15.02;60.06;102778.47;5032429;28;45928;-46
2022/10/06 07:34:03;;;;;;;;;4.67;2.00;;;;;15.06;60.20;102772.72;5033358;28;45486;-45
2022/10/06 07:36:29;;;;;;;;;7.00;2.67;;;;;15.13;60.22;102784.66;5033842;28;45518;-45
2022/10/06 07:38:55;;;;;;;;;8.33;3.00;;;;;15.17;60.13;102783.44;5033187;28;46101;-46
2022/10/06 07:41:21;;;;;;;;;4.67;3.00;;;;;15.14;59.82;102759.53;5033297;28;45555;-46
2022/10/06 07:43:46;;;;;;;;;5.33;4.00;;;;;15.27;59.93;102778.16;5033304;28;45400;-47
2022/10/06 07:46:12;;;;;;;;;3.33;3.33;;;;;15.33;59.61;102787.50;5028082;28;45550;-49
2022/10/06 07:48:38;;;;;;;;;7.00;2.67;;;;;15.38;59.51;102786.16;5013421;28;45404;-46
2022/10/06 07:51:11;;;;;;;;;5.33;3.00;;;;;15.42;59.43;102790.28;5013299;28;45450;-47
2022/10/06 07:53:37;;;;;;;;;3.00;2.00;;;;;15.48;59.08;102794.28;5012977;28;45477;-47
2022/10/06 07:56:06;;;;;;;;;4.33;3.00;;;;;15.55;59.13;102794.59;5013430;28;45400;-46
2022/10/06 07:58:33;;;;;;;;;4.67;2.00;;;;;15.60;58.63;102790.56;5008401;28;46261;-45
2022/10/06 08:01:07;;;;;;;;;2.00;2.00;;;;;15.67;58.56;102785.53;5013231;28;45776;-46
2022/10/06 08:03:35;;;;;;;;;3.00;1.00;;;;;15.75;58.23;102785.75;5013256;28;45495;-54
2022/10/06 08:06:01;;;;;;;;;7.67;2.33;;;;;15.94;57.79;102807.34;5013305;28;45448;-47
2022/10/06 08:08:30;;;;;;;;;3.00;1.67;;;;;16.11;57.51;102808.59;5012810;28;46370;-48
2022/10/06 08:10:57;;;;;;;;;3.00;3.00;;;;;16.29;56.94;102799.91;5012891;28;45460;-47
2022/10/06 08:13:23;;;;;;;;;5.00;2.67;;;;;16.50;56.51;102794.50;5012918;28;45274;-45
2022/10/06 08:15:50;;;;;;;;;6.00;2.67;;;;;17.06;55.31;102802.03;5014171;28;45444;-46
2022/10/06 08:18:17;;;;;;;;;4.00;2.00;;;;;18.72;51.74;102792.72;5032469;28;47053;-45
2022/10/06 08:20:42;;;;;;;;;6.00;2.50;;;;;20.51;47.89;102815.84;5032049;28;45498;-46
2022/10/06 08:23:11;;;;;;;;;5.50;2.75;;;;;22.17;44.59;102802.22;5027145;28;45479;-46
2022/10/06 08:25:42;;;;;;;;;2.75;2.75;;;;;22.93;42.57;102809.91;5032876;28;46532;-47
2022/10/06 08:28:11;;;;;;;;;4.50;2.00;;;;;24.05;40.78;102803.75;5032501;28;46282;-47
2022/10/06 08:30:37;;;;;;;;;3.80;3.00;;;;;25.18;38.14;102807.13;5032581;28;45346;-45
2022/10/06 08:33:04;;;;;;;;;5.60;1.80;;;;;25.97;36.72;102805.13;5032834;28;45490;-54
2022/10/06 08:35:30;;;;;;;;;4.00;2.00;;;;;26.52;35.34;102803.38;5028820;28;45562;-48
2022/10/06 08:37:55;;;;;;;;;2.50;2.25;;;;;26.41;35.97;102806.63;5032251;28;46405;-46
2022/10/06 08:40:21;;;;;;;;;1.75;1.75;;;;;26.12;35.87;102797.69;5032600;28;45407;-46
2022/10/06 08:42:52;;;;;;;;;4.75;4.75;;;;;25.98;36.50;102797.78;5026987;28;45943;-48
2022/10/06 08:45:41;;;;;;;;;7.60;2.20;;;;;25.86;38.07;102790.13;5035013;28;45475;-46
2022/10/06 08:48:13;;;;;;;;;3.20;2.60;;;;;26.00;37.44;102812.03;5027480;28;46389;-46
2022/10/06 08:50:58;;;;;;;;;0.60;0.60;;;;;26.14;37.79;102808.38;5035874;28;45764;-48
2022/10/06 08:53:45;;;;;;;;;4.40;2.80;;;;;26.40;35.56;102818.59;5035988;28;45493;-49
2022/10/06 08:56:26;;;;;;;;;3.60;1.20;;;;;27.02;36.89;102819.50;5032873;28;45379;-47
2022/10/06 08:58:57;;;;;;;;;1.40;1.40;;;;;28.00;34.74;102828.88;5031365;28;46311;-47
2022/10/06 09:01:32;;;;;;;;;4.40;2.00;;;;;29.08;32.59;102820.97;5035893;28;45440;-49
2022/10/06 09:04:04;;;;;;;;;2.40;1.20;;;;;29.95;31.71;102829.34;5027946;28;45476;-48
2022/10/06 09:06:44;;;;;;;;;5.80;2.40;;;;;30.57;29.40;102829.34;5035721;28;45304;-47
2022/10/06 09:09:21;;;;;;;;;4.20;3.60;;;;;31.24;29.63;102830.13;5032864;28;47046;-48
2022/10/06 09:12:01;;;;;;;;;4.60;3.00;;;;;31.91;27.64;102831.84;5032649;28;45450;-49
2022/10/06 09:14:46;;;;;;;;;2.60;2.20;;;;;32.16;29.41;102837.09;5035551;28;45454;-47
2022/10/06 09:17:19;;;;;;;;;5.80;4.00;;;;;32.44;27.69;102812.38;5030492;28;45278;-48
2022/10/06 09:19:52;;;;;;;;;4.40;2.80;;;;;32.91;26.90;102830.66;5035067;28;45543;-48
2022/10/06 09:22:20;;;;;;;;;4.20;1.80;;;;;33.17;26.99;102819.06;5029029;28;46092;-47
2022/10/06 09:24:49;;;;;;;;;4.80;2.00;;;;;33.56;24.91;102832.16;5017688;28;45493;-47
2022/10/06 09:27:20;;;;;;;;;3.40;3.20;;;;;34.07;25.95;102830.19;5035198;28;45434;-46
2022/10/06 09:29:47;;;;;;;;;4.60;2.00;;;;;34.44;24.67;102828.50;5033816;28;46315;-47
2022/10/06 09:32:14;;;;;;;;;1.80;0.80;;;;;34.71;24.79;102828.56;5028477;28;45544;-48
2022/10/06 09:34:44;;;;;;;;;4.60;2.00;;;;;35.00;25.27;102834.72;5034952;28;45361;-45
2022/10/06 09:37:11;;;;;;;;;7.60;1.40;;;;;35.27;23.06;102830.25;5034690;28;45594;-47
2022/10/06 09:39:42;;;;;;;;;2.80;2.40;;;;;35.40;23.76;102835.38;5034681;28;46959;-47
2022/10/06 09:42:20;;;;;;;;;3.20;2.40;;;;;35.70;23.55;102832.84;5033100;28;45456;-47
2022/10/06 09:44:49;;;;;;;;;2.80;2.00;;;;;35.89;23.42;102833.25;5031280;28;46325;-46
2022/10/06 09:47:43;;;;;;;;;4.80;2.60;;;;;36.08;23.85;102830.91;5030801;28;46398;-45
2022/10/06 09:50:25;;;;;;;;;4.40;2.00;;;;;36.24;22.18;102829.06;5031757;28;46627;-45
2022/10/06 09:52:56;;;;;;;;;2.60;2.40;;;;;36.41;22.45;102832.44;5031695;28;45505;-47
2022/10/06 09:55:27;;;;;;;;;1.20;1.20;;;;;36.47;21.16;102839.69;5034469;28;45514;-49
2022/10/06 09:57:55;;;;;;;;;4.80;2.80;;;;;36.51;21.93;102831.69;5034741;28;45460;-46
2022/10/06 10:00:28;;;;;;;;;4.20;1.00;;;;;36.59;21.83;102833.09;5035044;28;46891;-49
2022/10/06 10:03:08;;;;;;;;;2.80;2.40;;;;;36.35;22.25;102810.50;5025623;28;45488;-48
2022/10/06 10:05:37;;;;;;;;;4.00;1.00;;;;;36.21;21.78;102818.50;5034544;28;45541;-46
2022/10/06 10:08:12;;;;;;;;;3.00;2.40;;;;;35.64;22.45;102819.22;5028291;28;45419;-48
2022/10/06 10:10:39;;;;;;;;;3.40;1.60;;;;;35.14;23.25;102820.44;5034513;28;46210;-49
2022/10/06 10:13:23;;;;;;;;;1.80;1.20;;;;;34.68;23.35;102822.69;5034715;28;45350;-49
2022/10/06 10:15:55;;;;;;;;;1.80;1.80;;;;;34.55;23.94;102815.66;5028054;28;45479;-46
2022/10/06 10:18:25;;;;;;;;;1.40;1.20;;;;;34.26;23.47;102818.59;5027906;28;45368;-48
2022/10/06 10:21:07;;;;;;;;;3.00;2.00;;;;;33.63;25.21;102811.59;5031797;28;45434;-47
2022/10/06 10:23:35;;;;;;;;;5.80;2.00;;;;;32.89;25.77;102827.34;5034352;28;45477;-48
2022/10/06 10:26:12;;;;;;;;;3.40;1.60;;;;;32.74;26.61;102814.06;5029744;28;45560;-46
2022/10/06 10:28:47;;;;;;;;;3.00;1.40;;;;;32.61;26.71;102814.38;5029922;28;45608;-48
2022/10/06 10:31:49;;;;;;;;;5.60;2.80;;;;;32.69;26.79;102811.22;5026018;28;46313;-46
2022/10/06 10:34:25;;;;;;;;;7.00;2.00;;;;;32.46;28.16;102810.22;5019148;28;45424;-48
2022/10/06 10:36:51;;;;;;;;;3.60;3.00;;;;;32.08;26.46;102815.44;5023498;28;46282;-48
2022/10/06 10:39:27;;;;;;;;;6.25;1.50;;;;;32.04;26.49;102806.81;5014492;28;45468;-48
2022/10/06 10:41:57;;;;;;;;;2.00;2.00;;;;;31.45;26.67;102812.28;5025121;28;45403;-46
2022/10/06 10:44:36;;;;;;;;;3.60;2.20;;;;;31.25;26.97;102811.72;5028299;28;45495;-47
2022/10/06 10:47:26;;;;;;;;;2.00;2.00;;;;;30.90;27.25;102804.22;5031025;28;45821;-46
2022/10/06 10:50:16;;;;;;;;;1.60;1.60;;;;;32.85;26.64;102810.44;5030125;28;45548;-47
2022/10/06 10:52:45;;;;;;;;;1.80;1.80;;;;;33.11;24.21;102794.41;5033101;28;46309;-47
2022/10/06 10:55:34;;;;;;;;;2.00;0.60;;;;;33.37;23.95;102810.28;5032957;28;45499;-47
2022/10/06 10:58:28;;;;;;;;;5.40;1.60;;;;;32.20;24.82;102803.31;5022701;28;45590;-48
2022/10/06 11:01:24;;;;;;;;;3.80;1.00;;;;;30.69;26.65;102805.53;5032941;28;45368;-46
2022/10/06 11:03:57;;;;;;;;;1.00;1.00;;;;;29.32;26.91;102788.31;4950895;28;46427;-46
2022/10/06 11:07:05;;;;;;;;;2.20;0.80;;;;;29.70;26.51;102807.44;4966515;28;45509;-46
2022/10/06 11:09:52;;;;;;;;;0.80;0.60;;;;;28.85;27.40;102809.66;4885814;29;45482;-47
2022/10/06 11:12:23;;;;;;;;;3.20;2.60;;;;;30.94;26.21;102810.91;4883189;28;45442;-46
2022/10/06 11:15:31;;;;;;;;;4.80;1.40;;;;;34.62;22.72;102796.13;4913791;28;46258;-46
2022/10/06 11:18:26;;;;;;;;;5.60;2.00;;;;;34.86;20.87;102793.88;4880594;29;45464;-49
2022/10/06 11:20:51;;;;;;;;;2.80;1.40;;;;;32.49;23.21;102800.66;4868913;29;45492;-48
2022/10/06 11:23:32;;;;;;;;;4.00;1.00;;;;;32.91;22.76;102803.09;4895198;29;45538;-48
2022/10/06 11:26:16;;;;;;;;;2.20;2.20;;;;;35.98;20.98;102798.41;4894362;29;45676;-46
2022/10/06 11:29:07;;;;;;;;;2.80;1.00;;;;;38.42;19.03;102787.72;4880223;29;45491;-49
2022/10/06 11:31:41;;;;;;;;;3.80;1.40;;;;;40.15;16.94;102788.19;4887611;29;45428;-49
2022/10/06 11:34:08;;;;;;;;;2.20;1.80;;;;;41.02;18.64;102781.41;4875538;29;45445;-47
2022/10/06 11:37:12;;;;;;;;;2.40;2.40;;;;;41.55;16.84;102793.03;4889009;29;45824;-46
2022/10/06 11:40:04;;;;;;;;;2.80;0.20;;;;;40.27;16.02;102779.41;4803982;29;45451;-45
2022/10/06 11:43:00;;;;;;;;;4.20;0.00;;;;;37.13;20.19;102780.78;4780445;29;45472;-47
2022/10/06 11:45:53;;;;;;;;;1.60;0.40;;;;;36.08;19.21;102792.13;4784199;29;45789;-49
2022/10/06 11:48:29;;;;;;;;;4.20;2.00;;;;;34.23;21.05;102782.38;4801527;29;46781;-47
2022/10/06 11:51:16;;;;;;;;;3.40;3.00;;;;;35.50;19.90;102782.88;4815809;29;45486;-48